Time,TemperatureF,DewpointF,PressureIn,WindDirection,WindDirectionDegrees,WindSpeedMPH,WindSpeedGustMPH,Humidity,HourlyPrecipIn,Conditions,Clouds,dailyrainin,SoftwareType,DateUTC
2013-10-08 00:05:00,44.1,42.1,30.09,WSW,242,0.0,0.0,93,0.00,,,0.04,meteohub,2013-10-08 05:05:00,
2013-10-08 00:10:00,44.4,42.8,30.09,WSW,242,0.0,0.0,94,0.00,,,0.00,meteohub,2013-10-08 05:10:00,
2013-10-08 00:15:00,44.8,43.2,30.09,WSW,242,0.0,0.0,94,0.00,,,0.00,meteohub,2013-10-08 05:15:00,
2013-10-08 00:20:00,44.8,43.2,30.09,WSW,242,0.0,0.0,94,0.00,,,0.00,meteohub,2013-10-08 05:20:00,
2013-10-08 00:25:00,44.4,42.4,30.09,WSW,242,0.0,0.0,93,0.00,,,0.00,meteohub,2013-10-08 05:25:00,
2013-10-08 00:30:00,44.2,42.3,30.09,WSW,242,0.0,0.0,93,0.00,,,0.00,meteohub,2013-10-08 05:30:00,
2013-10-08 00:35:00,44.2,42.3,30.09,WSW,242,0.0,0.0,93,0.00,,,0.00,meteohub,2013-10-08 05:35:00,
2013-10-08 00:41:00,44.2,42.3,30.09,WSW,242,0.0,0.0,93,0.00,,,0.00,meteohub,2013-10-08 05:41:00,
2013-10-08 00:46:00,44.1,42.1,30.09,WSW,242,0.0,0.0,93,0.00,,,0.00,meteohub,2013-10-08 05:46:00,
2013-10-08 00:51:00,43.9,41.9,30.09,WSW,242,0.0,0.0,93,0.00,,,0.00,meteohub,2013-10-08 05:51:00,
2013-10-08 00:56:00,43.2,41.4,30.09,WSW,242,0.0,0.0,93,0.00,,,0.00,meteohub,2013-10-08 05:56:00,
2013-10-08 01:01:00,42.6,40.5,30.09,WSW,242,0.0,0.0,92,0.00,,,0.00,meteohub,2013-10-08 06:01:00,
2013-10-08 01:06:00,42.3,40.5,30.09,WSW,242,0.0,1.0,93,0.00,,,0.00,meteohub,2013-10-08 06:06:00,
2013-10-08 01:11:00,42.3,40.5,30.09,WSW,242,0.0,1.0,93,0.00,,,0.00,meteohub,2013-10-08 06:11:00,
2013-10-08 01:17:00,42.4,40.6,30.09,WSW,242,0.0,1.0,93,0.00,,,0.00,meteohub,2013-10-08 06:17:00,
2013-10-08 01:22:00,42.4,40.6,30.09,WSW,242,0.0,0.0,93,0.00,,,0.00,meteohub,2013-10-08 06:22:00,
2013-10-08 01:27:00,42.4,40.8,30.09,WSW,242,0.0,0.0,94,0.00,,,0.00,meteohub,2013-10-08 06:27:00,
2013-10-08 01:32:00,42.4,40.8,30.09,WSW,242,0.0,0.0,94,0.00,,,0.00,meteohub,2013-10-08 06:32:00,
2013-10-08 01:37:00,42.4,40.8,30.09,WSW,242,0.0,0.0,94,0.00,,,0.00,meteohub,2013-10-08 06:37:00,
2013-10-08 01:42:00,42.6,41.0,30.09,WSW,242,0.0,0.0,94,0.00,,,0.00,meteohub,2013-10-08 06:42:00,
2013-10-08 01:47:00,42.6,41.0,30.10,WSW,242,0.0,1.0,94,0.00,,,0.00,meteohub,2013-10-08 06:47:00,
2013-10-08 01:52:00,42.6,41.0,30.10,WSW,242,0.0,1.0,94,0.00,,,0.00,meteohub,2013-10-08 06:52:00,
2013-10-08 01:57:00,42.4,40.8,30.10,WSW,242,0.0,1.0,94,0.00,,,0.00,meteohub,2013-10-08 06:57:00,
2013-10-08 02:02:00,42.3,40.6,30.10,WSW,242,0.0,0.0,94,0.00,,,0.00,meteohub,2013-10-08 07:02:00,
2013-10-08 02:07:00,42.3,40.6,30.10,WSW,242,0.0,1.0,94,0.00,,,0.00,meteohub,2013-10-08 07:07:00,
2013-10-08 02:12:00,42.3,40.6,30.10,WSW,242,0.0,1.0,94,0.00,,,0.00,meteohub,2013-10-08 07:12:00,
2013-10-08 02:17:00,42.3,40.6,30.10,WSW,242,0.0,1.0,94,0.00,,,0.00,meteohub,2013-10-08 07:17:00,
2013-10-08 02:22:00,42.1,40.5,30.10,WSW,242,0.0,0.0,94,0.00,,,0.00,meteohub,2013-10-08 07:22:00,
2013-10-08 02:27:00,42.1,40.5,30.10,WSW,242,0.0,0.0,94,0.00,,,0.00,meteohub,2013-10-08 07:27:00,
2013-10-08 02:32:00,42.1,40.5,30.10,WSW,242,0.0,0.0,94,0.00,,,0.00,meteohub,2013-10-08 07:32:00,
2013-10-08 02:37:00,41.9,40.3,30.10,WSW,242,0.0,0.0,94,0.00,,,0.00,meteohub,2013-10-08 07:37:00,
2013-10-08 02:42:00,41.9,40.3,30.11,WSW,242,0.0,0.0,94,0.00,,,0.00,meteohub,2013-10-08 07:42:00,
2013-10-08 02:47:00,41.7,40.1,30.11,WSW,242,0.0,0.0,94,0.00,,,0.00,meteohub,2013-10-08 07:47:00,
2013-10-08 02:52:00,41.7,40.1,30.11,WSW,242,0.0,0.0,94,0.00,,,0.00,meteohub,2013-10-08 07:52:00,
2013-10-08 02:57:00,41.5,39.9,30.11,WSW,242,0.0,0.0,94,0.00,,,0.00,meteohub,2013-10-08 07:57:00,
2013-10-08 03:02:00,41.7,40.1,30.11,WSW,242,0.0,0.0,94,0.00,,,0.00,meteohub,2013-10-08 08:02:00,
2013-10-08 03:07:00,41.9,40.6,30.11,WSW,242,0.0,0.0,95,0.00,,,0.00,meteohub,2013-10-08 08:07:00,
2013-10-08 03:12:00,42.1,40.8,30.11,WSW,242,0.0,0.0,95,0.00,,,0.00,meteohub,2013-10-08 08:12:00,
2013-10-08 03:17:00,41.9,40.6,30.11,WSW,242,0.0,0.0,95,0.00,,,0.00,meteohub,2013-10-08 08:17:00,
2013-10-08 03:22:00,41.9,40.6,30.11,WSW,242,0.0,0.0,95,0.00,,,0.00,meteohub,2013-10-08 08:22:00,
2013-10-08 03:27:00,41.9,40.6,30.11,WSW,242,0.0,0.0,95,0.00,,,0.00,meteohub,2013-10-08 08:27:00,
2013-10-08 03:32:00,41.9,40.6,30.11,WSW,242,0.0,1.0,95,0.00,,,0.00,meteohub,2013-10-08 08:32:00,
2013-10-08 03:37:00,41.7,40.5,30.12,WSW,242,0.0,1.0,95,0.00,,,0.00,meteohub,2013-10-08 08:37:00,
2013-10-08 03:42:00,41.5,39.9,30.12,WSW,242,0.0,1.0,94,0.00,,,0.00,meteohub,2013-10-08 08:42:00,
2013-10-08 03:47:00,41.5,39.9,30.12,WSW,242,0.0,0.0,94,0.00,,,0.00,meteohub,2013-10-08 08:47:00,
2013-10-08 03:52:00,41.5,40.3,30.12,WSW,242,0.0,0.0,95,0.00,,,0.00,meteohub,2013-10-08 08:52:00,
2013-10-08 03:57:00,41.5,40.3,30.12,WSW,242,0.0,0.0,95,0.00,,,0.00,meteohub,2013-10-08 08:57:00,
2013-10-08 04:02:00,41.5,40.3,30.12,WSW,242,0.0,0.0,95,0.00,,,0.00,meteohub,2013-10-08 09:02:00,
2013-10-08 04:07:00,41.4,40.1,30.12,WSW,242,0.0,0.0,95,0.00,,,0.00,meteohub,2013-10-08 09:07:00,
2013-10-08 04:12:00,41.2,39.9,30.12,WSW,242,0.0,0.0,95,0.00,,,0.00,meteohub,2013-10-08 09:12:00,
2013-10-08 04:17:00,41.2,39.9,30.12,WSW,242,0.0,0.0,95,0.00,,,0.00,meteohub,2013-10-08 09:17:00,
2013-10-08 04:22:00,41.2,39.9,30.12,WSW,242,0.0,1.0,95,0.00,,,0.00,meteohub,2013-10-08 09:22:00,
2013-10-08 04:27:00,41.2,39.9,30.12,WSW,242,0.0,1.0,95,0.00,,,0.00,meteohub,2013-10-08 09:27:00,
2013-10-08 04:32:00,41.4,40.1,30.12,WSW,242,0.0,1.0,95,0.00,,,0.00,meteohub,2013-10-08 09:32:00,
2013-10-08 04:37:00,41.2,39.9,30.13,WSW,242,0.0,0.0,95,0.00,,,0.00,meteohub,2013-10-08 09:37:00,
2013-10-08 04:42:00,41.2,39.9,30.13,WSW,242,0.0,1.0,95,0.00,,,0.00,meteohub,2013-10-08 09:42:00,
2013-10-08 04:47:00,41.0,39.7,30.13,WSW,242,0.0,1.0,95,0.00,,,0.00,meteohub,2013-10-08 09:47:00,
2013-10-08 04:52:00,41.0,39.7,30.13,WSW,242,0.0,1.0,95,0.00,,,0.00,meteohub,2013-10-08 09:52:00,
2013-10-08 04:57:00,41.0,39.7,30.13,WSW,242,0.0,0.0,95,0.00,,,0.00,meteohub,2013-10-08 09:57:00,
2013-10-08 05:02:00,41.0,41.0,30.13,WSW,242,0.0,0.0,100,0.00,,,0.00,meteohub,2013-10-08 10:02:00,
2013-10-08 05:07:00,41.0,39.7,30.13,WSW,242,0.0,0.0,95,0.00,,,0.00,meteohub,2013-10-08 10:07:00,
2013-10-08 05:12:00,40.8,39.6,30.13,WSW,242,0.0,0.0,95,0.00,,,0.00,meteohub,2013-10-08 10:12:00,
2013-10-08 05:17:00,40.6,39.4,30.13,WSW,242,0.0,0.0,95,0.00,,,0.00,meteohub,2013-10-08 10:17:00,
2013-10-08 05:22:00,40.6,39.4,30.13,WSW,242,0.0,0.0,95,0.00,,,0.00,meteohub,2013-10-08 10:22:00,
2013-10-08 05:27:00,40.6,39.4,30.13,WSW,242,0.0,1.0,95,0.01,,,0.01,meteohub,2013-10-08 10:27:00,
2013-10-08 05:32:00,40.6,39.4,30.13,WSW,242,0.0,1.0,95,0.01,,,0.01,meteohub,2013-10-08 10:32:00,
2013-10-08 05:37:00,40.8,39.6,30.13,WSW,242,0.0,1.0,95,0.01,,,0.01,meteohub,2013-10-08 10:37:00,
2013-10-08 05:42:00,41.0,39.7,30.14,WSW,242,0.0,0.0,95,0.01,,,0.01,meteohub,2013-10-08 10:42:00,
2013-10-08 05:47:00,41.2,39.9,30.14,WSW,242,0.0,0.0,95,0.01,,,0.01,meteohub,2013-10-08 10:47:00,
2013-10-08 05:52:00,41.2,39.9,30.14,WSW,242,0.0,0.0,95,0.01,,,0.01,meteohub,2013-10-08 10:52:00,
2013-10-08 05:57:00,41.2,39.9,30.14,WSW,242,0.0,0.0,95,0.01,,,0.01,meteohub,2013-10-08 10:57:00,
2013-10-08 06:02:00,41.2,39.9,30.14,WSW,242,0.0,0.0,95,0.01,,,0.01,meteohub,2013-10-08 11:02:00,
2013-10-08 06:07:00,41.2,39.9,30.14,WSW,242,0.0,0.0,95,0.01,,,0.01,meteohub,2013-10-08 11:07:00,
2013-10-08 06:12:00,41.2,40.1,30.14,WSW,242,0.0,0.0,96,0.01,,,0.01,meteohub,2013-10-08 11:12:00,
2013-10-08 06:17:00,41.2,40.1,30.14,WSW,242,0.0,0.0,96,0.01,,,0.01,meteohub,2013-10-08 11:17:00,
2013-10-08 06:22:00,41.2,40.1,30.14,WSW,242,0.0,0.0,96,0.01,,,0.01,meteohub,2013-10-08 11:22:00,
2013-10-08 06:27:00,41.2,40.1,30.14,WSW,242,0.0,0.0,96,0.00,,,0.01,meteohub,2013-10-08 11:27:00,
2013-10-08 06:32:00,41.4,40.3,30.14,WSW,242,0.0,0.0,96,0.00,,,0.01,meteohub,2013-10-08 11:32:00,
2013-10-08 06:37:00,41.4,40.3,30.14,WSW,242,0.0,0.0,96,0.00,,,0.01,meteohub,2013-10-08 11:37:00,
2013-10-08 06:42:00,41.5,40.5,30.15,WSW,242,0.0,0.0,96,0.00,,,0.01,meteohub,2013-10-08 11:42:00,
2013-10-08 06:47:00,41.9,40.8,30.15,WSW,242,0.0,0.0,96,0.00,,,0.01,meteohub,2013-10-08 11:47:00,
2013-10-08 06:52:00,41.5,40.5,30.15,WSW,242,0.0,0.0,96,0.00,,,0.01,meteohub,2013-10-08 11:52:00,
2013-10-08 06:57:00,41.4,40.3,30.15,WSW,242,0.0,0.0,96,0.00,,,0.01,meteohub,2013-10-08 11:57:00,
2013-10-08 07:02:00,41.2,40.1,30.15,WSW,242,0.0,0.0,96,0.00,,,0.01,meteohub,2013-10-08 12:02:00,
2013-10-08 07:07:00,41.0,39.9,30.15,WSW,242,0.0,0.0,96,0.00,,,0.01,meteohub,2013-10-08 12:07:00,
2013-10-08 07:12:00,41.2,40.1,30.15,WSW,242,0.0,0.0,96,0.00,,,0.01,meteohub,2013-10-08 12:12:00,
2013-10-08 07:17:00,41.2,40.1,30.15,WSW,242,0.0,0.0,96,0.00,,,0.01,meteohub,2013-10-08 12:17:00,
2013-10-08 07:22:00,41.4,40.3,30.15,WSW,242,0.0,0.0,96,0.00,,,0.01,meteohub,2013-10-08 12:22:00,
2013-10-08 07:27:00,41.5,40.5,30.15,WSW,242,0.0,0.0,96,0.00,,,0.01,meteohub,2013-10-08 12:27:00,
2013-10-08 07:32:00,41.7,40.6,30.16,WSW,242,0.0,0.0,96,0.00,,,0.01,meteohub,2013-10-08 12:32:00,
2013-10-08 07:37:00,42.1,41.0,30.16,WSW,242,0.0,1.0,96,0.00,,,0.01,meteohub,2013-10-08 12:37:00,
2013-10-08 07:42:00,42.6,41.5,30.16,WSW,242,0.0,1.0,96,0.00,,,0.01,meteohub,2013-10-08 12:42:00,
2013-10-08 07:47:00,43.0,41.9,30.15,WSW,242,0.0,1.0,96,0.00,,,0.01,meteohub,2013-10-08 12:47:00,
2013-10-08 07:52:00,43.3,42.3,30.16,WSW,242,0.0,0.0,96,0.00,,,0.01,meteohub,2013-10-08 12:52:00,
2013-10-08 07:57:00,44.1,43.3,30.16,WSW,242,0.0,0.0,97,0.00,,,0.01,meteohub,2013-10-08 12:57:00,
2013-10-08 08:02:00,44.8,44.1,30.16,WSW,242,0.0,0.0,97,0.00,,,0.01,meteohub,2013-10-08 13:02:00,
2013-10-08 08:07:00,45.3,44.6,30.16,WSW,242,0.0,0.0,97,0.00,,,0.01,meteohub,2013-10-08 13:07:00,
2013-10-08 08:12:00,46.0,45.3,30.16,WSW,242,0.0,0.0,97,0.00,,,0.01,meteohub,2013-10-08 13:12:00,
2013-10-08 08:17:00,46.8,46.0,30.16,WSW,242,0.0,0.0,97,0.00,,,0.01,meteohub,2013-10-08 13:17:00,
2013-10-08 08:22:00,47.7,46.9,30.16,WSW,242,0.0,0.0,97,0.00,,,0.01,meteohub,2013-10-08 13:22:00,
2013-10-08 08:27:00,48.4,47.5,30.16,WSW,242,0.0,0.0,97,0.00,,,0.01,meteohub,2013-10-08 13:27:00,
2013-10-08 08:32:00,49.1,48.2,30.16,WSW,242,1.0,1.0,97,0.00,,,0.01,meteohub,2013-10-08 13:32:00,
2013-10-08 08:37:00,49.6,48.7,30.16,WSW,242,0.0,3.0,97,0.00,,,0.01,meteohub,2013-10-08 13:37:00,
2013-10-08 08:42:00,50.0,49.1,30.16,WSW,242,0.0,3.0,97,0.00,,,0.01,meteohub,2013-10-08 13:42:00,
2013-10-08 08:47:00,50.9,50.0,30.16,WSW,242,0.0,3.0,97,0.00,,,0.01,meteohub,2013-10-08 13:47:00,
2013-10-08 08:52:00,51.4,50.5,30.16,WSW,242,0.0,3.0,97,0.00,,,0.01,meteohub,2013-10-08 13:52:00,
2013-10-08 08:57:00,52.2,51.3,30.17,WSW,242,0.0,4.0,97,0.00,,,0.01,meteohub,2013-10-08 13:57:00,
2013-10-08 09:02:00,53.2,52.3,30.17,SW,230,0.0,5.0,97,0.00,,,0.01,meteohub,2013-10-08 14:02:00,
2013-10-08 09:07:00,54.1,52.7,30.17,SW,215,0.0,6.0,95,0.00,,,0.01,meteohub,2013-10-08 14:07:00,
2013-10-08 09:12:00,55.2,52.3,30.16,South,185,1.0,6.0,90,0.00,,,0.01,meteohub,2013-10-08 14:12:00,
2013-10-08 09:17:00,56.1,52.3,30.16,South,186,0.0,6.0,87,0.00,,,0.01,meteohub,2013-10-08 14:17:00,
2013-10-08 09:22:00,57.4,52.5,30.16,South,186,1.0,6.0,84,0.00,,,0.01,meteohub,2013-10-08 14:22:00,
2013-10-08 09:27:00,58.3,52.5,30.16,South,186,2.0,6.0,81,0.00,,,0.01,meteohub,2013-10-08 14:27:00,
2013-10-08 09:32:00,59.2,52.3,30.16,South,180,2.0,6.0,78,0.00,,,0.01,meteohub,2013-10-08 14:32:00,
2013-10-08 09:37:00,60.1,52.5,30.16,South,180,2.0,6.0,76,0.00,,,0.01,meteohub,2013-10-08 14:37:00,
2013-10-08 09:42:00,60.6,52.0,30.16,South,180,3.0,6.0,73,0.00,,,0.01,meteohub,2013-10-08 14:42:00,
2013-10-08 09:47:00,61.2,52.0,30.16,South,184,6.0,7.0,72,0.00,,,0.01,meteohub,2013-10-08 14:47:00,
2013-10-08 09:52:00,61.5,51.6,30.16,South,189,3.0,7.0,70,0.00,,,0.01,meteohub,2013-10-08 14:52:00,
2013-10-08 09:57:00,61.7,51.4,30.15,South,184,4.0,9.0,69,0.00,,,0.01,meteohub,2013-10-08 14:57:00,
2013-10-08 10:02:00,61.9,51.3,30.15,South,181,4.0,9.0,68,0.00,,,0.01,meteohub,2013-10-08 15:02:00,
2013-10-08 10:07:00,62.1,50.9,30.15,SSW,193,7.0,10.0,67,0.00,,,0.01,meteohub,2013-10-08 15:07:00,
2013-10-08 10:12:00,62.4,52.2,30.15,South,178,6.0,10.0,69,0.00,,,0.01,meteohub,2013-10-08 15:12:00,
2013-10-08 10:17:00,63.0,52.7,30.15,SSE,166,3.0,10.0,69,0.00,,,0.01,meteohub,2013-10-08 15:17:00,
2013-10-08 10:22:00,63.5,51.4,30.15,SSW,199,1.0,12.0,65,0.00,,,0.01,meteohub,2013-10-08 15:22:00,
2013-10-08 10:27:00,64.0,51.6,30.15,South,169,11.0,12.0,64,0.00,,,0.01,meteohub,2013-10-08 15:27:00,
2013-10-08 10:32:00,64.2,50.9,30.15,SSW,192,7.0,13.0,62,0.00,,,0.01,meteohub,2013-10-08 15:32:00,
2013-10-08 10:37:00,64.6,50.4,30.15,SSE,155,6.0,13.0,60,0.00,,,0.01,meteohub,2013-10-08 15:37:00,
2013-10-08 10:42:00,64.9,50.7,30.15,SSE,167,6.0,13.0,60,0.00,,,0.01,meteohub,2013-10-08 15:42:00,
2013-10-08 10:47:00,65.5,50.4,30.14,South,189,5.0,12.0,58,0.00,,,0.01,meteohub,2013-10-08 15:47:00,
2013-10-08 10:52:00,65.8,50.2,30.15,South,178,9.0,12.0,57,0.00,,,0.01,meteohub,2013-10-08 15:52:00,
2013-10-08 10:57:00,66.0,48.9,30.15,SSE,168,8.0,14.0,54,0.00,,,0.01,meteohub,2013-10-08 15:57:00,
2013-10-08 11:02:00,66.4,49.6,30.15,SSW,196,8.0,14.0,55,0.00,,,0.01,meteohub,2013-10-08 16:02:00,
2013-10-08 11:07:00,66.6,49.8,30.15,SSW,213,6.0,14.0,55,0.00,,,0.01,meteohub,2013-10-08 16:07:00,
2013-10-08 11:12:00,66.7,49.6,30.15,South,180,10.0,12.0,54,0.00,,,0.01,meteohub,2013-10-08 16:12:00,
2013-10-08 11:17:00,67.1,50.4,30.15,SSW,196,6.0,15.0,55,0.00,,,0.01,meteohub,2013-10-08 16:17:00,
2013-10-08 11:22:00,67.3,50.5,30.15,SSW,198,3.0,15.0,55,0.00,,,0.01,meteohub,2013-10-08 16:22:00,
2013-10-08 11:27:00,67.5,51.6,30.15,SW,217,5.0,17.0,57,0.00,,,0.01,meteohub,2013-10-08 16:27:00,
2013-10-08 11:32:00,67.8,52.0,30.14,SSW,193,4.0,17.0,57,0.00,,,0.01,meteohub,2013-10-08 16:32:00,
2013-10-08 11:37:00,67.8,51.6,30.14,South,186,3.0,17.0,56,0.00,,,0.01,meteohub,2013-10-08 16:37:00,
2013-10-08 11:43:00,68.2,51.8,30.14,SSE,165,7.0,10.0,56,0.00,,,0.01,meteohub,2013-10-08 16:43:00,
2013-10-08 11:48:00,68.4,52.0,30.14,South,179,6.0,10.0,56,0.00,,,0.01,meteohub,2013-10-08 16:48:00,
2013-10-08 11:53:00,68.5,52.2,30.14,South,171,3.0,11.0,56,0.00,,,0.01,meteohub,2013-10-08 16:53:00,
2013-10-08 11:58:00,68.7,52.3,30.14,SSE,152,7.0,11.0,56,0.00,,,0.01,meteohub,2013-10-08 16:58:00,
2013-10-08 12:03:00,68.7,52.3,30.14,SSE,164,8.0,11.0,56,0.00,,,0.01,meteohub,2013-10-08 17:03:00,
2013-10-08 12:08:00,69.1,52.7,30.14,SSW,196,6.0,11.0,56,0.00,,,0.01,meteohub,2013-10-08 17:08:00,
2013-10-08 12:13:00,69.3,52.9,30.14,South,180,7.0,11.0,56,0.00,,,0.01,meteohub,2013-10-08 17:13:00,
2013-10-08 12:18:00,69.6,54.1,30.14,SSE,154,4.0,11.0,58,0.00,,,0.01,meteohub,2013-10-08 17:18:00,
2013-10-08 12:24:00,69.8,52.9,30.14,South,178,2.0,11.0,55,0.00,,,0.01,meteohub,2013-10-08 17:24:00,
2013-10-08 12:29:00,70.0,52.5,30.14,South,172,5.0,12.0,54,0.00,,,0.01,meteohub,2013-10-08 17:29:00,
2013-10-08 12:34:00,70.2,52.7,30.13,South,185,7.0,12.0,54,0.00,,,0.01,meteohub,2013-10-08 17:34:00,
2013-10-08 12:39:00,70.3,53.4,30.13,South,179,7.0,12.0,55,0.00,,,0.01,meteohub,2013-10-08 17:39:00,
2013-10-08 12:44:00,70.3,52.9,30.13,South,191,7.0,11.0,54,0.00,,,0.01,meteohub,2013-10-08 17:44:00,
2013-10-08 12:49:00,70.5,52.5,30.13,South,175,7.0,11.0,53,0.00,,,0.01,meteohub,2013-10-08 17:49:00,
2013-10-08 12:54:00,70.9,52.9,30.12,SSW,211,4.0,11.0,53,0.00,,,0.01,meteohub,2013-10-08 17:54:00,
2013-10-08 13:00:00,71.1,52.5,30.12,South,189,4.0,11.0,52,0.00,,,0.01,meteohub,2013-10-08 18:00:00,
2013-10-08 13:05:00,71.1,52.5,30.12,SSW,194,5.0,11.0,52,0.00,,,0.01,meteohub,2013-10-08 18:05:00,
2013-10-08 13:10:00,71.4,52.9,30.12,South,188,9.0,14.0,52,0.00,,,0.01,meteohub,2013-10-08 18:10:00,
2013-10-08 13:15:00,71.8,52.2,30.12,South,170,4.0,14.0,50,0.00,,,0.01,meteohub,2013-10-08 18:15:00,
2013-10-08 13:20:00,72.1,53.1,30.12,South,181,4.0,12.0,51,0.00,,,0.01,meteohub,2013-10-08 18:20:00,
2013-10-08 13:25:00,72.3,53.2,30.11,SSW,205,4.0,12.0,51,0.00,,,0.01,meteohub,2013-10-08 18:25:00,
2013-10-08 13:30:00,72.9,52.5,30.11,South,182,8.0,10.0,49,0.00,,,0.01,meteohub,2013-10-08 18:30:00,
2013-10-08 13:35:00,73.0,53.8,30.11,South,169,5.0,11.0,51,0.00,,,0.01,meteohub,2013-10-08 18:35:00,
2013-10-08 13:41:00,72.9,52.5,30.11,SSW,194,4.0,11.0,49,0.00,,,0.01,meteohub,2013-10-08 18:41:00,
2013-10-08 13:46:00,73.0,52.2,30.10,SSW,196,7.0,14.0,48,0.00,,,0.01,meteohub,2013-10-08 18:46:00,
2013-10-08 13:51:00,73.0,52.7,30.10,South,173,4.0,14.0,49,0.00,,,0.01,meteohub,2013-10-08 18:51:00,
2013-10-08 13:56:00,73.4,52.5,30.10,South,173,3.0,12.0,48,0.00,,,0.01,meteohub,2013-10-08 18:56:00,
2013-10-08 14:01:00,73.4,52.0,30.10,SSE,159,5.0,12.0,47,0.00,,,0.01,meteohub,2013-10-08 19:01:00,
2013-10-08 14:06:00,73.8,51.6,30.10,South,182,7.0,13.0,46,0.00,,,0.01,meteohub,2013-10-08 19:06:00,
2013-10-08 14:12:00,73.9,51.3,30.10,South,184,10.0,13.0,45,0.00,,,0.01,meteohub,2013-10-08 19:12:00,
2013-10-08 14:17:00,73.8,49.8,30.10,SSW,198,3.0,13.0,43,0.00,,,0.01,meteohub,2013-10-08 19:17:00,
2013-10-08 14:22:00,74.1,50.9,30.10,SSW,209,7.0,13.0,44,0.00,,,0.01,meteohub,2013-10-08 19:22:00,
2013-10-08 14:27:00,74.5,51.1,30.10,SSW,199,5.0,13.0,44,0.00,,,0.01,meteohub,2013-10-08 19:27:00,
2013-10-08 14:32:00,74.3,50.9,30.10,SSW,204,3.0,14.0,44,0.00,,,0.01,meteohub,2013-10-08 19:32:00,
2013-10-08 14:37:00,74.7,50.7,30.10,South,185,9.0,14.0,43,0.00,,,0.01,meteohub,2013-10-08 19:37:00,
2013-10-08 14:42:00,74.5,51.1,30.09,South,173,8.0,13.0,44,0.00,,,0.01,meteohub,2013-10-08 19:42:00,
2013-10-08 14:48:00,74.5,51.1,30.09,SSW,204,2.0,13.0,44,0.00,,,0.01,meteohub,2013-10-08 19:48:00,
2013-10-08 14:53:00,74.3,50.9,30.10,SSW,202,5.0,13.0,44,0.00,,,0.01,meteohub,2013-10-08 19:53:00,
2013-10-08 14:58:00,74.5,51.8,30.09,South,186,4.0,13.0,45,0.00,,,0.01,meteohub,2013-10-08 19:58:00,
2013-10-08 15:03:00,74.7,52.0,30.09,South,187,9.0,13.0,45,0.00,,,0.01,meteohub,2013-10-08 20:03:00,
2013-10-08 15:08:00,74.7,51.3,30.09,South,170,3.0,13.0,44,0.00,,,0.01,meteohub,2013-10-08 20:08:00,
2013-10-08 15:13:00,74.5,51.8,30.09,South,183,3.0,13.0,45,0.00,,,0.01,meteohub,2013-10-08 20:13:00,
2013-10-08 15:18:00,74.5,52.3,30.09,SSE,159,9.0,12.0,46,0.00,,,0.01,meteohub,2013-10-08 20:18:00,
2013-10-08 15:24:00,74.5,51.8,30.09,South,173,6.0,13.0,45,0.00,,,0.01,meteohub,2013-10-08 20:24:00,
2013-10-08 15:29:00,74.5,51.8,30.09,South,183,6.0,13.0,45,0.00,,,0.01,meteohub,2013-10-08 20:29:00,
2013-10-08 15:34:00,74.5,51.8,30.09,South,188,4.0,13.0,45,0.00,,,0.01,meteohub,2013-10-08 20:34:00,
2013-10-08 15:39:00,74.5,52.3,30.09,SSW,205,5.0,12.0,46,0.00,,,0.01,meteohub,2013-10-08 20:39:00,
2013-10-08 15:45:00,74.8,52.2,30.09,South,182,7.0,11.0,45,0.00,,,0.01,meteohub,2013-10-08 20:45:00,
2013-10-08 15:50:00,74.7,52.5,30.09,South,190,7.0,11.0,46,0.00,,,0.01,meteohub,2013-10-08 20:50:00,
2013-10-08 15:55:00,74.5,51.8,30.09,SSE,162,8.0,11.0,45,0.00,,,0.01,meteohub,2013-10-08 20:55:00,
2013-10-08 16:00:00,74.5,52.3,30.09,South,173,5.0,11.0,46,0.00,,,0.01,meteohub,2013-10-08 21:00:00,
2013-10-08 16:05:00,74.7,52.5,30.09,SSW,193,7.0,11.0,46,0.00,,,0.01,meteohub,2013-10-08 21:05:00,
2013-10-08 16:10:00,74.5,51.8,30.09,South,188,2.0,12.0,45,0.00,,,0.01,meteohub,2013-10-08 21:10:00,
2013-10-08 16:16:00,74.5,51.8,30.09,South,190,6.0,12.0,45,0.00,,,0.01,meteohub,2013-10-08 21:16:00,
2013-10-08 16:21:00,74.5,52.9,30.08,South,189,5.0,11.0,47,0.00,,,0.01,meteohub,2013-10-08 21:21:00,
2013-10-08 16:26:00,74.5,52.3,30.08,South,188,3.0,11.0,46,0.00,,,0.01,meteohub,2013-10-08 21:26:00,
2013-10-08 16:31:00,74.1,53.2,30.08,South,180,4.0,11.0,48,0.00,,,0.01,meteohub,2013-10-08 21:31:00,
2013-10-08 16:36:00,74.1,52.5,30.08,SSE,158,5.0,11.0,47,0.00,,,0.01,meteohub,2013-10-08 21:36:00,
2013-10-08 16:42:00,73.9,52.5,30.08,SSE,167,4.0,11.0,47,0.00,,,0.01,meteohub,2013-10-08 21:42:00,
2013-10-08 16:47:00,73.9,53.1,30.08,South,169,9.0,11.0,48,0.00,,,0.01,meteohub,2013-10-08 21:47:00,
2013-10-08 16:52:00,73.9,53.1,30.08,South,170,5.0,11.0,48,0.00,,,0.01,meteohub,2013-10-08 21:52:00,
2013-10-08 16:57:00,73.8,52.3,30.08,South,184,5.0,11.0,47,0.00,,,0.01,meteohub,2013-10-08 21:57:00,
2013-10-08 17:02:00,73.6,52.2,30.08,South,169,4.0,10.0,47,0.00,,,0.01,meteohub,2013-10-08 22:02:00,
2013-10-08 17:07:00,73.2,51.8,30.08,South,169,4.0,10.0,47,0.00,,,0.01,meteohub,2013-10-08 22:07:00,
2013-10-08 17:12:00,72.9,52.0,30.08,SSE,163,1.0,10.0,48,0.00,,,0.01,meteohub,2013-10-08 22:12:00,
2013-10-08 17:17:00,72.1,52.0,30.08,South,169,5.0,9.0,49,0.00,,,0.01,meteohub,2013-10-08 22:17:00,
2013-10-08 17:22:00,71.4,51.8,30.08,South,173,2.0,9.0,50,0.00,,,0.01,meteohub,2013-10-08 22:22:00,
2013-10-08 17:27:00,71.1,52.0,30.08,South,181,1.0,8.0,51,0.00,,,0.01,meteohub,2013-10-08 22:27:00,
2013-10-08 17:32:00,70.9,52.3,30.08,South,182,3.0,8.0,52,0.00,,,0.01,meteohub,2013-10-08 22:32:00,
2013-10-08 17:37:00,70.2,51.8,30.08,SSE,168,4.0,8.0,52,0.00,,,0.01,meteohub,2013-10-08 22:37:00,
2013-10-08 17:42:00,69.8,52.0,30.08,South,169,1.0,6.0,53,0.00,,,0.01,meteohub,2013-10-08 22:42:00,
2013-10-08 17:47:00,69.4,52.2,30.08,SSE,167,0.0,6.0,54,0.00,,,0.01,meteohub,2013-10-08 22:47:00,
2013-10-08 17:52:00,69.1,51.8,30.08,SSE,167,1.0,6.0,54,0.00,,,0.01,meteohub,2013-10-08 22:52:00,
2013-10-08 17:57:00,68.5,51.3,30.08,SSE,167,0.0,5.0,54,0.00,,,0.01,meteohub,2013-10-08 22:57:00,
2013-10-08 18:02:00,68.2,51.4,30.08,SSE,167,0.0,3.0,55,0.00,,,0.01,meteohub,2013-10-08 23:02:00,
2013-10-08 18:07:00,67.8,51.6,30.08,SSE,167,0.0,3.0,56,0.00,,,0.01,meteohub,2013-10-08 23:07:00,
2013-10-08 18:12:00,67.5,51.3,30.08,SSE,167,0.0,4.0,56,0.00,,,0.01,meteohub,2013-10-08 23:12:00,
2013-10-08 18:17:00,67.1,51.4,30.08,SSE,167,0.0,4.0,57,0.00,,,0.01,meteohub,2013-10-08 23:17:00,
2013-10-08 18:22:00,66.7,51.4,30.08,SSE,167,0.0,3.0,58,0.00,,,0.01,meteohub,2013-10-08 23:22:00,
2013-10-08 18:27:00,66.4,51.1,30.08,SSE,167,0.0,3.0,58,0.00,,,0.01,meteohub,2013-10-08 23:27:00,
2013-10-08 18:32:00,65.8,51.1,30.08,SSE,165,0.0,3.0,59,0.00,,,0.01,meteohub,2013-10-08 23:32:00,
2013-10-08 18:38:00,65.7,51.4,30.08,SSE,165,0.0,4.0,60,0.00,,,0.01,meteohub,2013-10-08 23:38:00,
2013-10-08 18:43:00,65.5,51.3,30.08,SSE,165,0.0,4.0,60,0.00,,,0.01,meteohub,2013-10-08 23:43:00,
2013-10-08 18:48:00,65.1,50.9,30.08,SSE,162,0.0,3.0,60,0.00,,,0.01,meteohub,2013-10-08 23:48:00,
2013-10-08 18:53:00,64.9,50.7,30.08,SSE,162,0.0,5.0,60,0.00,,,0.01,meteohub,2013-10-08 23:53:00,
2013-10-08 18:59:00,64.8,50.5,30.08,SSE,163,1.0,5.0,60,0.00,,,0.01,meteohub,2013-10-08 23:59:00,
2013-10-08 19:04:00,64.8,50.2,30.08,SSE,167,3.0,5.0,59,0.00,,,0.01,meteohub,2013-10-09 00:04:00,
2013-10-08 19:09:00,64.8,50.2,30.08,South,169,0.0,5.0,59,0.00,,,0.01,meteohub,2013-10-09 00:09:00,
2013-10-08 19:14:00,64.8,50.2,30.08,South,173,3.0,5.0,59,0.00,,,0.01,meteohub,2013-10-09 00:14:00,
2013-10-08 19:19:00,64.8,49.6,30.08,South,170,2.0,6.0,58,0.00,,,0.01,meteohub,2013-10-09 00:19:00,
2013-10-08 19:24:00,64.8,49.6,30.08,South,171,1.0,6.0,58,0.00,,,0.01,meteohub,2013-10-09 00:24:00,
2013-10-08 19:30:00,64.6,49.5,30.09,South,171,0.0,5.0,58,0.00,,,0.01,meteohub,2013-10-09 00:30:00,
2013-10-08 19:35:00,64.6,50.0,30.09,South,170,3.0,5.0,59,0.00,,,0.01,meteohub,2013-10-09 00:35:00,
2013-10-08 19:40:00,64.2,49.6,30.09,South,171,4.0,4.0,59,0.00,,,0.01,meteohub,2013-10-09 00:40:00,
2013-10-08 19:45:00,64.0,49.5,30.09,South,171,0.0,4.0,59,0.00,,,0.01,meteohub,2013-10-09 00:45:00,
2013-10-08 19:50:00,63.9,49.6,30.09,South,171,0.0,4.0,60,0.00,,,0.01,meteohub,2013-10-09 00:50:00,
2013-10-08 19:56:00,63.7,49.5,30.09,South,171,0.0,4.0,60,0.00,,,0.01,meteohub,2013-10-09 00:56:00,
2013-10-08 20:01:00,63.3,49.3,30.09,South,169,0.0,4.0,60,0.00,,,0.01,meteohub,2013-10-09 01:01:00,
2013-10-08 20:06:00,63.1,49.5,30.09,South,169,0.0,4.0,61,0.00,,,0.01,meteohub,2013-10-09 01:06:00,
2013-10-08 20:11:00,62.6,49.5,30.09,SSE,164,0.0,4.0,62,0.00,,,0.01,meteohub,2013-10-09 01:11:00,
2013-10-08 20:16:00,62.2,50.0,30.10,SSE,164,0.0,5.0,64,0.00,,,0.01,meteohub,2013-10-09 01:16:00,
2013-10-08 20:21:00,61.7,49.5,30.10,SSE,164,0.0,5.0,64,0.00,,,0.01,meteohub,2013-10-09 01:21:00,
2013-10-08 20:27:00,61.3,49.5,30.10,SSE,164,0.0,3.0,65,0.00,,,0.01,meteohub,2013-10-09 01:27:00,
2013-10-08 20:32:00,61.2,49.6,30.10,SSE,164,0.0,5.0,66,0.00,,,0.01,meteohub,2013-10-09 01:32:00,
2013-10-08 20:37:00,60.8,49.8,30.10,SSE,164,0.0,5.0,67,0.00,,,0.01,meteohub,2013-10-09 01:37:00,
2013-10-08 20:42:00,60.6,49.6,30.10,SSE,164,0.0,5.0,67,0.00,,,0.01,meteohub,2013-10-09 01:42:00,
2013-10-08 20:47:00,60.4,49.8,30.10,SSE,164,0.0,3.0,68,0.00,,,0.01,meteohub,2013-10-09 01:47:00,
2013-10-08 20:52:00,60.4,49.8,30.10,SSE,167,3.0,3.0,68,0.00,,,0.01,meteohub,2013-10-09 01:52:00,
2013-10-08 20:57:00,60.6,50.0,30.10,South,169,0.0,5.0,68,0.00,,,0.01,meteohub,2013-10-09 01:57:00,
2013-10-08 21:02:00,60.6,50.0,30.10,SSE,158,0.0,6.0,68,0.00,,,0.01,meteohub,2013-10-09 02:02:00,
2013-10-08 21:07:00,60.6,50.0,30.10,SSE,160,1.0,8.0,68,0.00,,,0.01,meteohub,2013-10-09 02:07:00,
2013-10-08 21:12:00,61.0,50.4,30.11,SSE,161,2.0,8.0,68,0.00,,,0.01,meteohub,2013-10-09 02:12:00,
2013-10-08 21:17:00,60.8,50.2,30.11,SSE,161,1.0,8.0,68,0.00,,,0.01,meteohub,2013-10-09 02:17:00,
2013-10-08 21:23:00,60.6,50.4,30.11,SSE,161,0.0,7.0,69,0.00,,,0.01,meteohub,2013-10-09 02:23:00,
2013-10-08 21:28:00,59.9,50.2,30.11,SSE,161,0.0,5.0,70,0.00,,,0.01,meteohub,2013-10-09 02:28:00,
2013-10-08 21:33:00,59.2,50.2,30.11,SSE,161,3.0,4.0,72,0.00,,,0.01,meteohub,2013-10-09 02:33:00,
2013-10-08 21:38:00,58.8,50.2,30.11,SSE,163,1.0,6.0,73,0.00,,,0.01,meteohub,2013-10-09 02:38:00,
2013-10-08 21:43:00,58.5,49.8,30.11,SSE,165,1.0,6.0,73,0.00,,,0.01,meteohub,2013-10-09 02:43:00,
2013-10-08 21:48:00,58.5,50.2,30.11,SSE,165,2.0,6.0,74,0.00,,,0.01,meteohub,2013-10-09 02:48:00,
2013-10-08 21:54:00,58.5,50.2,30.11,South,173,1.0,6.0,74,0.00,,,0.01,meteohub,2013-10-09 02:54:00,
2013-10-08 21:59:00,59.2,50.5,30.11,South,174,0.0,6.0,73,0.00,,,0.01,meteohub,2013-10-09 02:59:00,
2013-10-08 22:04:00,59.5,50.5,30.11,South,182,4.0,8.0,72,0.00,,,0.01,meteohub,2013-10-09 03:04:00,
2013-10-08 22:09:00,60.1,50.7,30.11,South,182,2.0,8.0,71,0.00,,,0.01,meteohub,2013-10-09 03:09:00,
2013-10-08 22:14:00,60.3,50.4,30.11,South,179,2.0,8.0,70,0.00,,,0.01,meteohub,2013-10-09 03:14:00,
2013-10-08 22:20:00,60.6,50.7,30.11,South,180,3.0,7.0,70,0.00,,,0.01,meteohub,2013-10-09 03:20:00,
2013-10-08 22:25:00,60.6,50.4,30.11,South,184,5.0,8.0,69,0.00,,,0.01,meteohub,2013-10-09 03:25:00,
2013-10-08 22:30:00,60.6,50.4,30.11,South,169,5.0,9.0,69,0.00,,,0.01,meteohub,2013-10-09 03:30:00,
2013-10-08 22:35:00,60.6,50.4,30.11,South,185,4.0,10.0,69,0.00,,,0.01,meteohub,2013-10-09 03:35:00,
2013-10-08 22:40:00,60.6,50.4,30.11,South,184,4.0,12.0,69,0.00,,,0.01,meteohub,2013-10-09 03:40:00,
2013-10-08 22:45:00,60.4,50.5,30.11,South,186,7.0,12.0,70,0.00,,,0.01,meteohub,2013-10-09 03:45:00,
2013-10-08 22:51:00,60.4,50.5,30.12,South,178,3.0,12.0,70,0.00,,,0.01,meteohub,2013-10-09 03:51:00,
2013-10-08 22:56:00,60.4,50.5,30.11,South,172,4.0,10.0,70,0.00,,,0.01,meteohub,2013-10-09 03:56:00,
2013-10-08 23:01:00,60.3,50.9,30.11,South,170,0.0,10.0,71,0.00,,,0.01,meteohub,2013-10-09 04:01:00,
2013-10-08 23:02:00,60.3,50.9,30.11,South,190,3.0,10.0,71,0.00,,,0.01,meteohub,2013-10-09 04:02:00,
2013-10-08 23:06:00,60.3,50.9,30.11,SSW,200,3.0,10.0,71,0.00,,,0.01,meteohub,2013-10-09 04:06:00,
2013-10-08 23:07:00,60.3,50.9,30.11,South,186,4.0,10.0,71,0.00,,,0.01,meteohub,2013-10-09 04:07:00,
2013-10-08 23:08:00,60.3,50.9,30.11,South,186,6.0,10.0,71,0.00,,,0.01,meteohub,2013-10-09 04:08:00,
2013-10-08 23:13:00,60.1,51.1,30.12,South,181,3.0,10.0,72,0.00,,,0.01,meteohub,2013-10-09 04:13:00,
2013-10-08 23:18:00,59.9,50.9,30.12,SSW,194,4.0,10.0,72,0.00,,,0.01,meteohub,2013-10-09 04:18:00,
2013-10-08 23:23:00,59.5,50.9,30.11,South,189,1.0,10.0,73,0.00,,,0.01,meteohub,2013-10-09 04:23:00,
2013-10-08 23:28:00,59.4,50.7,30.11,South,188,6.0,8.0,73,0.00,,,0.01,meteohub,2013-10-09 04:28:00,
2013-10-08 23:33:00,59.2,50.9,30.11,SSW,194,4.0,8.0,74,0.00,,,0.01,meteohub,2013-10-09 04:33:00,
2013-10-08 23:39:00,59.0,50.7,30.11,SSW,196,5.0,8.0,74,0.00,,,0.01,meteohub,2013-10-09 04:39:00,
2013-10-08 23:44:00,59.0,50.7,30.11,South,188,1.0,9.0,74,0.00,,,0.01,meteohub,2013-10-09 04:44:00,
2013-10-08 23:49:00,59.0,50.7,30.12,SSW,198,2.0,9.0,74,0.00,,,0.01,meteohub,2013-10-09 04:49:00,
2013-10-08 23:54:00,58.8,50.5,30.11,South,188,0.0,9.0,74,0.00,,,0.01,meteohub,2013-10-09 04:54:00,
2013-10-08 23:59:00,58.6,50.7,30.11,South,184,0.0,9.0,75,0.00,,,0.01,meteohub,2013-10-09 04:59:00,